Todd G — WRC6671 — position and weather

sailwx.info

Track history (hours):
 
Tides and Currents Weather Stations Pressure Air Temp Water Temp Dewpoint Dewpoint Depression Visibility Wind Speed Wind Dir Waves Ship Positions

Todd G

Owner: Harbor Towing & Fleeting, Inc., Metairie, LA. More information available from US FCC via Universal Licensing System and Coast Guard Vessel Documentation Center.

Last reported at 2016-Jun-22 10:12 UTC. Time now 2016-Jun-26 12:03 UTC.
Position N 29°56' W 090°00'.

Length 16 m.

Type: Towing. MMSI: 366988470.

Date/timePositionNaut miles runAvg speedWind from/ knotsBaromVisibWave heightAir tempDewpointWater temp
2016-Jun-22 10:12N 29°56' W 090°00'0 0.0
2016-Jun-22 09:33N 29°56' W 090°00'0 0.0
2016-Jun-22 08:34N 29°56' W 090°00'0 0.1
2016-Jun-22 07:34N 29°56' W 090°00'0 0.0
2016-Jun-22 06:34N 29°56' W 090°00'0 0.0
2016-Jun-22 05:33N 29°56' W 090°00'0 0.0
2016-Jun-22 04:33N 29°56' W 090°00'0 0.0
2016-Jun-22 03:33N 29°56' W 090°00'0 0.0
2016-Jun-21 12:17N 29°56' W 090°00'0 0.0
2016-Jun-21 11:10N 29°56' W 090°00'0 0.0
2016-Jun-20 20:16N 29°56' W 090°00'0 0.0
2016-Jun-20 19:34N 29°56' W 090°00'0 0.0
2016-Jun-20 18:34N 29°56' W 090°00'0 0.0
2016-Jun-20 17:34N 29°56' W 090°00'0 0.0
2016-Jun-20 16:34N 29°56' W 090°00'0 0.0
2016-Jun-20 15:34N 29°56' W 090°00'0 0.0
2016-Jun-20 14:33N 29°56' W 090°00'0 0.0
2016-Jun-20 13:34N 29°56' W 090°00'0 0.0
2016-Jun-20 12:33N 29°56' W 090°00'0 0.0
2016-Jun-20 11:33N 29°56' W 090°00'2 1.9
2016-Jun-20 10:33N 29°58' W 090°02'3 2.7
2016-Jun-20 09:34N 29°60' W 089°60'5 5.4
2016-Jun-20 08:34N 30°01' W 089°53'1 1.0
2016-Jun-20 07:25N 30°01' W 089°55'6 6.4
2016-Jun-20 06:34N 29°60' W 090°01'2 2.3
2016-Jun-20 05:34N 29°57' W 090°01'1 1.2
2016-Jun-20 04:34N 29°56' W 090°00'0 0.1
2016-Jun-20 03:34N 29°56' W 090°00'0 0.0
2016-Jun-20 02:34N 29°56' W 090°00'0 0.0
2016-Jun-20 01:33N 29°56' W 090°00'0 0.0
2016-Jun-20 00:33N 29°56' W 090°00'0 0.0
2016-Jun-19 23:34N 29°56' W 090°00'0 0.0
2016-Jun-19 22:34N 29°56' W 090°00'0 0.0
2016-Jun-19 21:34N 29°56' W 090°00'0 0.0
2016-Jun-19 20:34N 29°56' W 090°00'0 0.0
2016-Jun-19 19:34N 29°56' W 090°00'0 0.0
2016-Jun-19 18:33N 29°56' W 090°00'0 0.0
2016-Jun-19 17:33N 29°56' W 090°00'0 0.0
2016-Jun-19 16:34N 29°56' W 090°00'0 0.0
2016-Jun-19 15:33N 29°56' W 090°00'0 0.0
2016-Jun-19 14:34N 29°56' W 090°00'0 0.0
2016-Jun-19 13:34N 29°56' W 090°00'2 1.9
2016-Jun-19 12:34N 29°58' W 090°02'2 2.5
2016-Jun-19 11:33N 29°60' W 089°60'3 2.6
2016-Jun-19 10:34N 29°58' W 090°02'2 1.8
2016-Jun-19 09:34N 29°56' W 090°00'0 0.0
2016-Jun-19 08:33N 29°56' W 090°00'2 0.2
2016-Jun-18 20:17N 29°58' W 090°02'0 0.2
2016-Jun-18 19:33N 29°58' W 090°02'2 2.0
2016-Jun-18 18:33N 29°60' W 090°01'0 0.1
2016-Jun-18 17:34N 29°60' W 090°00'2 2.3
2016-Jun-18 16:33N 29°58' W 090°02'1 0.7
2016-Jun-18 15:34N 29°57' W 090°02'1 1.1
2016-Jun-18 14:17N 29°56' W 090°00'6 1.3
2016-Jun-18 09:14N 30°01' W 089°55'3 4.6
2016-Jun-18 08:33N 29°60' W 089°58'4 3.5
2016-Jun-18 07:33N 29°58' W 090°02'1 0.6
2016-Jun-18 06:34N 29°57' W 090°01'1 1.3
2016-Jun-18 05:34N 29°56' W 090°00'0 0.0
2016-Jun-18 04:34N 29°56' W 090°00'0 0.0
2016-Jun-18 03:33N 29°56' W 090°00'0 0.1
2016-Jun-18 02:33N 29°56' W 090°00'0 0.0
2016-Jun-18 01:33N 29°56' W 090°00'0 0.0
2016-Jun-18 00:33N 29°56' W 090°00'0 0.0
2016-Jun-17 23:33N 29°56' W 090°00'2 2.2
2016-Jun-17 22:33N 29°55' W 089°58'2 2.1
2016-Jun-17 21:33N 29°54' W 089°60'3 0.7
2016-Jun-17 17:33N 29°56' W 090°00'0 0.0
2016-Jun-17 14:33N 29°56' W 090°00'0 0.0
2016-Jun-17 13:33N 29°56' W 090°00'0 0.0
2016-Jun-17 12:15N 29°56' W 090°00'0 0.0
2016-Jun-17 11:33N 29°56' W 090°00'0 0.0
2016-Jun-17 10:33N 29°56' W 090°00'1 1.2
2016-Jun-17 09:33N 29°57' W 090°01'3 2.9
2016-Jun-17 08:33N 29°60' W 089°60'6 5.7
2016-Jun-17 07:33N 30°01' W 089°53'8 0.6
2016-Jun-16 19:27N 29°56' W 090°00'1 1.7
2016-Jun-16 18:34N 29°57' W 090°02'1 1.4
2016-Jun-16 17:33N 29°57' W 090°03'3 2.7
2016-Jun-16 16:34N 29°56' W 090°00'2 2.1
2016-Jun-16 15:33N 29°56' W 089°58'4 3.8
2016-Jun-16 14:33N 29°58' W 090°02'8 3.3
2016-Jun-16 12:12N 30°01' W 089°53'3 4.2
2016-Jun-16 11:33N 30°00' W 089°56'5 5.1
2016-Jun-16 10:34N 29°58' W 090°02'0 0.3
2016-Jun-16 09:34N 29°58' W 090°02'1 0.7
2016-Jun-16 08:33N 29°57' W 090°01'1 1.0
2016-Jun-16 07:34N 29°56' W 090°00'0 0.0
2016-Jun-16 06:34N 29°56' W 090°00'0 0.0
2016-Jun-16 05:33N 29°56' W 090°00'0 0.0
2016-Jun-16 04:33N 29°56' W 090°00'0 0.0
2016-Jun-16 03:33N 29°56' W 090°00'0 0.0
2016-Jun-16 02:33N 29°56' W 090°00'0 0.0
2016-Jun-16 01:34N 29°56' W 090°00'0 0.0
2016-Jun-16 00:34N 29°56' W 090°00'0 0.4
2016-Jun-15 23:34N 29°57' W 090°01'3 2.7
2016-Jun-15 22:34N 29°59' W 090°01'6 6.0
2016-Jun-15 21:32N 30°01' W 089°54'1 0.7
2016-Jun-15 20:34N 30°01' W 089°53'6 5.8
2016-Jun-15 19:33N 29°60' W 090°00'2 2.3
2016-Jun-15 18:30N 29°58' W 090°02'0 0.3
2016-Jun-15 17:34N 29°58' W 090°02'2 1.8
2016-Jun-15 16:34N 29°56' W 090°00'0 0.0
2016-Jun-15 15:33N 29°56' W 090°00'2 2.0
2016-Jun-15 14:33N 29°58' W 090°02'1 0.9
2016-Jun-15 13:33N 29°59' W 090°01'0 0.0
2016-Jun-15 12:34N 29°59' W 090°01'1 1.3
2016-Jun-15 11:33N 29°60' W 090°00'0 0.0
2016-Jun-15 10:33N 29°60' W 090°00'2 2.5
2016-Jun-15 09:34N 29°58' W 090°02'2 1.6
2016-Jun-15 08:34N 29°57' W 090°00'0 0.3
2016-Jun-15 07:34N 29°56' W 090°00'0 0.0
2016-Jun-15 06:34N 29°56' W 090°00'0 0.0
2016-Jun-15 05:33N 29°56' W 090°00'0 0.0
2016-Jun-15 04:33N 29°56' W 090°00'0 0.0
2016-Jun-15 03:34N 29°56' W 090°00'0 0.0
2016-Jun-15 02:34N 29°56' W 090°00'0 0.0
2016-Jun-15 01:33N 29°56' W 090°00'2 2.0
2016-Jun-15 00:33N 29°58' W 090°02'2 2.1
2016-Jun-14 23:34N 29°60' W 090°00'2 1.7
2016-Jun-14 22:34N 29°58' W 090°01'0 0.0
2016-Jun-14 21:34N 29°58' W 090°01'0 0.5
2016-Jun-14 20:34N 29°58' W 090°02'0 0.3
2016-Jun-14 19:34N 29°58' W 090°02'2 0.5
2016-Jun-14 16:10N 29°56' W 090°00'0 0.0
2016-Jun-14 15:33N 29°56' W 090°00'0 0.0
2016-Jun-14 14:34N 29°56' W 090°00'0 0.0
2016-Jun-14 13:34N 29°56' W 090°00'0 0.0
2016-Jun-14 12:34N 29°56' W 090°00'0 0.0
2016-Jun-14 11:34N 29°56' W 090°00'0 0.0
2016-Jun-14 10:34N 29°56' W 090°00'0 0.0
2016-Jun-14 09:33N 29°56' W 090°00'0 0.0
2016-Jun-14 08:34N 29°56' W 090°00'2 2.2
2016-Jun-14 07:33N 29°58' W 090°02'1 0.4
2016-Jun-14 05:34N 29°58' W 090°02'0 0.4
2016-Jun-14 04:34N 29°58' W 090°01'1 1.0
2016-Jun-14 03:33N 29°59' W 090°01'1 1.3
2016-Jun-14 02:33N 29°58' W 090°02'2 2.4
2016-Jun-14 01:33N 29°60' W 089°60'0 0.0
2016-Jun-14 00:33N 29°60' W 089°60'2 2.4
2016-Jun-13 23:33N 29°58' W 090°02'1 0.8
2016-Jun-13 22:33N 29°57' W 090°02'2 1.7
2016-Jun-13 21:33N 29°56' W 090°00'0 0.0
2016-Jun-13 20:34N 29°56' W 090°00'0 0.1
2016-Jun-13 19:34N 29°56' W 090°00'0 0.1
2016-Jun-13 18:33N 29°56' W 090°00'0 0.0
2016-Jun-13 17:33N 29°56' W 090°00'0 0.0
2016-Jun-13 16:33N 29°56' W 090°00'0 0.0
2016-Jun-13 15:33N 29°56' W 090°00'0 0.0
2016-Jun-13 14:33N 29°56' W 090°00'0 0.0
2016-Jun-13 13:33N 29°56' W 090°00'0 0.0
2016-Jun-13 12:33N 29°56' W 090°00'0 0.0
2016-Jun-13 11:34N 29°56' W 090°00'0 0.0
2016-Jun-13 10:33N 29°56' W 090°00'0 0.0
2016-Jun-13 09:33N 29°56' W 090°00'0 0.0
2016-Jun-13 08:34N 29°56' W 090°00'0 0.0
2016-Jun-13 07:33N 29°56' W 090°00'0 0.0
2016-Jun-13 06:33N 29°56' W 090°00'0 0.0
2016-Jun-13 05:34N 29°56' W 090°00'1 1.2
2016-Jun-13 04:33N 29°57' W 090°01'1 0.9
2016-Jun-13 03:33N 29°58' W 090°02'2 2.0
2016-Jun-13 02:34N 29°60' W 090°01'1 1.4
2016-Jun-13 01:33N 29°59' W 090°01'0 0.2
2016-Jun-13 00:33N 29°58' W 090°01'1 0.8
2016-Jun-12 23:33N 29°58' W 090°02'2 0.9
2016-Jun-12 21:33N 29°56' W 090°00'0 0.0
2016-Jun-12 20:33N 29°56' W 090°00'0 0.0
2016-Jun-12 19:33N 29°56' W 090°00'0 0.0
2016-Jun-12 18:33N 29°56' W 090°00'0 0.0
2016-Jun-12 15:17N 29°56' W 090°00'0 0.0
2016-Jun-12 14:33N 29°56' W 090°00'0 0.0
2016-Jun-12 13:33N 29°56' W 090°00'0 0.2
2016-Jun-12 12:34N 29°56' W 090°01'2 1.7
2016-Jun-12 11:33N 29°58' W 090°02'0 0.2
2016-Jun-12 10:33N 29°58' W 090°02'  
Track history (hours):
 
Tides and Currents Weather Stations Pressure Air Temp Water Temp Dewpoint Dewpoint Depression Visibility Wind Speed Wind Dir Waves Ship Positions

Todd G

Owner: Harbor Towing & Fleeting, Inc., Metairie, LA. More information available from US FCC via Universal Licensing System and Coast Guard Vessel Documentation Center.

Last reported at 2016-Jun-22 10:12 UTC. Time now 2016-Jun-26 12:04 UTC.
Position N 29°56' W 090°00'.

Length 16 m.

Type: Towing. MMSI: 366988470.

Date/timePositionNaut miles runAvg speedWind from/ knotsBaromVisibWave heightAir tempDewpointWater temp
2016-Jun-22 10:12N 29°56' W 090°00'0 0.0
2016-Jun-22 09:33N 29°56' W 090°00'0 0.0
2016-Jun-22 08:34N 29°56' W 090°00'0 0.1
2016-Jun-22 07:34N 29°56' W 090°00'0 0.0
2016-Jun-22 06:34N 29°56' W 090°00'0 0.0
2016-Jun-22 05:33N 29°56' W 090°00'0 0.0
2016-Jun-22 04:33N 29°56' W 090°00'0 0.0
2016-Jun-22 03:33N 29°56' W 090°00'0 0.0
2016-Jun-21 12:17N 29°56' W 090°00'0 0.0
2016-Jun-21 11:10N 29°56' W 090°00'0 0.0
2016-Jun-20 20:16N 29°56' W 090°00'0 0.0
2016-Jun-20 19:34N 29°56' W 090°00'0 0.0
2016-Jun-20 18:34N 29°56' W 090°00'0 0.0
2016-Jun-20 17:34N 29°56' W 090°00'0 0.0
2016-Jun-20 16:34N 29°56' W 090°00'0 0.0
2016-Jun-20 15:34N 29°56' W 090°00'0 0.0
2016-Jun-20 14:33N 29°56' W 090°00'0 0.0
2016-Jun-20 13:34N 29°56' W 090°00'0 0.0
2016-Jun-20 12:33N 29°56' W 090°00'0 0.0
2016-Jun-20 11:33N 29°56' W 090°00'2 1.9
2016-Jun-20 10:33N 29°58' W 090°02'3 2.7
2016-Jun-20 09:34N 29°60' W 089°60'5 5.4
2016-Jun-20 08:34N 30°01' W 089°53'1 1.0
2016-Jun-20 07:25N 30°01' W 089°55'6 6.4
2016-Jun-20 06:34N 29°60' W 090°01'2 2.3
2016-Jun-20 05:34N 29°57' W 090°01'1 1.2
2016-Jun-20 04:34N 29°56' W 090°00'0 0.1
2016-Jun-20 03:34N 29°56' W 090°00'0 0.0
2016-Jun-20 02:34N 29°56' W 090°00'0 0.0
2016-Jun-20 01:33N 29°56' W 090°00'0 0.0
2016-Jun-20 00:33N 29°56' W 090°00'0 0.0
2016-Jun-19 23:34N 29°56' W 090°00'0 0.0
2016-Jun-19 22:34N 29°56' W 090°00'0 0.0
2016-Jun-19 21:34N 29°56' W 090°00'0 0.0
2016-Jun-19 20:34N 29°56' W 090°00'0 0.0
2016-Jun-19 19:34N 29°56' W 090°00'0 0.0
2016-Jun-19 18:33N 29°56' W 090°00'0 0.0
2016-Jun-19 17:33N 29°56' W 090°00'0 0.0
2016-Jun-19 16:34N 29°56' W 090°00'0 0.0
2016-Jun-19 15:33N 29°56' W 090°00'0 0.0
2016-Jun-19 14:34N 29°56' W 090°00'0 0.0
2016-Jun-19 13:34N 29°56' W 090°00'2 1.9
2016-Jun-19 12:34N 29°58' W 090°02'2 2.5
2016-Jun-19 11:33N 29°60' W 089°60'3 2.6
2016-Jun-19 10:34N 29°58' W 090°02'2 1.8
2016-Jun-19 09:34N 29°56' W 090°00'0 0.0
2016-Jun-19 08:33N 29°56' W 090°00'2 0.2
2016-Jun-18 20:17N 29°58' W 090°02'0 0.2
2016-Jun-18 19:33N 29°58' W 090°02'2 2.0
2016-Jun-18 18:33N 29°60' W 090°01'0 0.1
2016-Jun-18 17:34N 29°60' W 090°00'2 2.3
2016-Jun-18 16:33N 29°58' W 090°02'1 0.7
2016-Jun-18 15:34N 29°57' W 090°02'1 1.1
2016-Jun-18 14:17N 29°56' W 090°00'6 1.3
2016-Jun-18 09:14N 30°01' W 089°55'3 4.6
2016-Jun-18 08:33N 29°60' W 089°58'4 3.5
2016-Jun-18 07:33N 29°58' W 090°02'1 0.6
2016-Jun-18 06:34N 29°57' W 090°01'1 1.3
2016-Jun-18 05:34N 29°56' W 090°00'0 0.0
2016-Jun-18 04:34N 29°56' W 090°00'0 0.0
2016-Jun-18 03:33N 29°56' W 090°00'0 0.1
2016-Jun-18 02:33N 29°56' W 090°00'0 0.0
2016-Jun-18 01:33N 29°56' W 090°00'0 0.0
2016-Jun-18 00:33N 29°56' W 090°00'0 0.0
2016-Jun-17 23:33N 29°56' W 090°00'2 2.2
2016-Jun-17 22:33N 29°55' W 089°58'2 2.1
2016-Jun-17 21:33N 29°54' W 089°60'3 0.7
2016-Jun-17 17:33N 29°56' W 090°00'0 0.0
2016-Jun-17 14:33N 29°56' W 090°00'0 0.0
2016-Jun-17 13:33N 29°56' W 090°00'0 0.0
2016-Jun-17 12:15N 29°56' W 090°00'0 0.0
2016-Jun-17 11:33N 29°56' W 090°00'0 0.0
2016-Jun-17 10:33N 29°56' W 090°00'1 1.2
2016-Jun-17 09:33N 29°57' W 090°01'3 2.9
2016-Jun-17 08:33N 29°60' W 089°60'6 5.7
2016-Jun-17 07:33N 30°01' W 089°53'8 0.6
2016-Jun-16 19:27N 29°56' W 090°00'1 1.7
2016-Jun-16 18:34N 29°57' W 090°02'1 1.4
2016-Jun-16 17:33N 29°57' W 090°03'3 2.7
2016-Jun-16 16:34N 29°56' W 090°00'2 2.1
2016-Jun-16 15:33N 29°56' W 089°58'4 3.8
2016-Jun-16 14:33N 29°58' W 090°02'8 3.3
2016-Jun-16 12:12N 30°01' W 089°53'3 4.2
2016-Jun-16 11:33N 30°00' W 089°56'5 5.1
2016-Jun-16 10:34N 29°58' W 090°02'0 0.3
2016-Jun-16 09:34N 29°58' W 090°02'1 0.7
2016-Jun-16 08:33N 29°57' W 090°01'1 1.0
2016-Jun-16 07:34N 29°56' W 090°00'0 0.0
2016-Jun-16 06:34N 29°56' W 090°00'0 0.0
2016-Jun-16 05:33N 29°56' W 090°00'0 0.0
2016-Jun-16 04:33N 29°56' W 090°00'0 0.0
2016-Jun-16 03:33N 29°56' W 090°00'0 0.0
2016-Jun-16 02:33N 29°56' W 090°00'0 0.0
2016-Jun-16 01:34N 29°56' W 090°00'0 0.0
2016-Jun-16 00:34N 29°56' W 090°00'0 0.4
2016-Jun-15 23:34N 29°57' W 090°01'3 2.7
2016-Jun-15 22:34N 29°59' W 090°01'6 6.0
2016-Jun-15 21:32N 30°01' W 089°54'1 0.7
2016-Jun-15 20:34N 30°01' W 089°53'6 5.8
2016-Jun-15 19:33N 29°60' W 090°00'2 2.3
2016-Jun-15 18:30N 29°58' W 090°02'0 0.3
2016-Jun-15 17:34N 29°58' W 090°02'2 1.8
2016-Jun-15 16:34N 29°56' W 090°00'0 0.0
2016-Jun-15 15:33N 29°56' W 090°00'2 2.0
2016-Jun-15 14:33N 29°58' W 090°02'1 0.9
2016-Jun-15 13:33N 29°59' W 090°01'0 0.0
2016-Jun-15 12:34N 29°59' W 090°01'1 1.3
2016-Jun-15 11:33N 29°60' W 090°00'0 0.0
2016-Jun-15 10:33N 29°60' W 090°00'2 2.5
2016-Jun-15 09:34N 29°58' W 090°02'2 1.6
2016-Jun-15 08:34N 29°57' W 090°00'0 0.3
2016-Jun-15 07:34N 29°56' W 090°00'0 0.0
2016-Jun-15 06:34N 29°56' W 090°00'0 0.0
2016-Jun-15 05:33N 29°56' W 090°00'0 0.0
2016-Jun-15 04:33N 29°56' W 090°00'0 0.0
2016-Jun-15 03:34N 29°56' W 090°00'0 0.0
2016-Jun-15 02:34N 29°56' W 090°00'0 0.0
2016-Jun-15 01:33N 29°56' W 090°00'2 2.0
2016-Jun-15 00:33N 29°58' W 090°02'2 2.1
2016-Jun-14 23:34N 29°60' W 090°00'2 1.7
2016-Jun-14 22:34N 29°58' W 090°01'0 0.0
2016-Jun-14 21:34N 29°58' W 090°01'0 0.5
2016-Jun-14 20:34N 29°58' W 090°02'0 0.3
2016-Jun-14 19:34N 29°58' W 090°02'2 0.5
2016-Jun-14 16:10N 29°56' W 090°00'0 0.0
2016-Jun-14 15:33N 29°56' W 090°00'0 0.0
2016-Jun-14 14:34N 29°56' W 090°00'0 0.0
2016-Jun-14 13:34N 29°56' W 090°00'0 0.0
2016-Jun-14 12:34N 29°56' W 090°00'0 0.0
2016-Jun-14 11:34N 29°56' W 090°00'0 0.0
2016-Jun-14 10:34N 29°56' W 090°00'0 0.0
2016-Jun-14 09:33N 29°56' W 090°00'0 0.0
2016-Jun-14 08:34N 29°56' W 090°00'2 2.2
2016-Jun-14 07:33N 29°58' W 090°02'1 0.4
2016-Jun-14 05:34N 29°58' W 090°02'0 0.4
2016-Jun-14 04:34N 29°58' W 090°01'1 1.0
2016-Jun-14 03:33N 29°59' W 090°01'1 1.3
2016-Jun-14 02:33N 29°58' W 090°02'2 2.4
2016-Jun-14 01:33N 29°60' W 089°60'0 0.0
2016-Jun-14 00:33N 29°60' W 089°60'2 2.4
2016-Jun-13 23:33N 29°58' W 090°02'1 0.8
2016-Jun-13 22:33N 29°57' W 090°02'2 1.7
2016-Jun-13 21:33N 29°56' W 090°00'0 0.0
2016-Jun-13 20:34N 29°56' W 090°00'0 0.1
2016-Jun-13 19:34N 29°56' W 090°00'0 0.1
2016-Jun-13 18:33N 29°56' W 090°00'0 0.0
2016-Jun-13 17:33N 29°56' W 090°00'0 0.0
2016-Jun-13 16:33N 29°56' W 090°00'0 0.0
2016-Jun-13 15:33N 29°56' W 090°00'0 0.0
2016-Jun-13 14:33N 29°56' W 090°00'0 0.0
2016-Jun-13 13:33N 29°56' W 090°00'0 0.0
2016-Jun-13 12:33N 29°56' W 090°00'0 0.0
2016-Jun-13 11:34N 29°56' W 090°00'0 0.0
2016-Jun-13 10:33N 29°56' W 090°00'0 0.0
2016-Jun-13 09:33N 29°56' W 090°00'0 0.0
2016-Jun-13 08:34N 29°56' W 090°00'0 0.0
2016-Jun-13 07:33N 29°56' W 090°00'0 0.0
2016-Jun-13 06:33N 29°56' W 090°00'0 0.0
2016-Jun-13 05:34N 29°56' W 090°00'1 1.2
2016-Jun-13 04:33N 29°57' W 090°01'1 0.9
2016-Jun-13 03:33N 29°58' W 090°02'2 2.0
2016-Jun-13 02:34N 29°60' W 090°01'1 1.4
2016-Jun-13 01:33N 29°59' W 090°01'0 0.2
2016-Jun-13 00:33N 29°58' W 090°01'1 0.8
2016-Jun-12 23:33N 29°58' W 090°02'2 0.9
2016-Jun-12 21:33N 29°56' W 090°00'0 0.0
2016-Jun-12 20:33N 29°56' W 090°00'0 0.0
2016-Jun-12 19:33N 29°56' W 090°00'0 0.0
2016-Jun-12 18:33N 29°56' W 090°00'0 0.0
2016-Jun-12 15:17N 29°56' W 090°00'0 0.0
2016-Jun-12 14:33N 29°56' W 090°00'0 0.0
2016-Jun-12 13:33N 29°56' W 090°00'0 0.2
2016-Jun-12 12:34N 29°56' W 090°01'2 1.7
2016-Jun-12 11:33N 29°58' W 090°02'0 0.2
2016-Jun-12 10:33N 29°58' W 090°02'  

Dump ship's entire track history